createdAt,value
2018-05-18T00:01:38.144Z,101468.78
2018-05-18T00:04:04.193Z,101458.09
2018-05-18T00:06:30.033Z,101464.48
2018-05-18T00:08:55.720Z,101463.89
2018-05-18T00:11:21.466Z,101462.30
2018-05-18T00:13:47.208Z,101466.60
2018-05-18T00:16:12.956Z,101464.42
2018-05-18T00:18:39.004Z,101464.56
2018-05-18T00:21:04.760Z,101469.42
2018-05-18T00:23:30.492Z,101467.66
2018-05-18T00:25:56.225Z,101463.77
2018-05-18T00:28:22.016Z,101466.50
2018-05-18T00:30:47.789Z,101464.32
2018-05-18T00:33:13.520Z,101464.89
2018-05-18T00:35:39.268Z,101466.84
2018-05-18T00:38:05.626Z,101463.16
2018-05-18T00:40:31.401Z,101465.77
2018-05-18T00:42:57.136Z,101470.60
2018-05-18T00:45:22.861Z,101472.52
2018-05-18T00:47:48.593Z,101465.91
2018-05-18T00:50:14.320Z,101473.07
2018-05-18T00:52:40.045Z,101466.80
2018-05-18T00:55:18.172Z,101470.27
2018-05-18T00:57:43.960Z,101478.93
2018-05-18T01:00:09.815Z,101475.69
2018-05-18T01:02:35.605Z,101482.02
2018-05-18T01:05:01.340Z,101484.61
2018-05-18T01:07:27.070Z,101484.44
2018-05-18T01:09:52.820Z,101485.27
2018-05-18T01:12:18.569Z,101475.02
2018-05-18T01:14:44.297Z,101486.34
2018-05-18T01:17:10.042Z,101482.38
2018-05-18T01:19:35.789Z,101477.11
2018-05-18T01:22:01.545Z,101481.03
2018-05-18T01:24:27.264Z,101480.30
2018-05-18T01:26:53.014Z,101484.20
2018-05-18T01:29:18.742Z,101478.86
2018-05-18T01:31:44.484Z,101475.95
2018-05-18T01:34:10.229Z,101486.03
2018-05-18T01:36:36.037Z,101489.20
2018-05-18T01:39:01.781Z,101493.48
2018-05-18T01:41:27.668Z,101489.49
2018-05-18T01:43:53.396Z,101492.23
2018-05-18T01:46:19.127Z,101483.94
2018-05-18T01:48:44.877Z,101486.31
2018-05-18T01:51:10.608Z,101490.64
2018-05-18T01:53:36.362Z,101491.02
2018-05-18T01:56:02.152Z,101488.29
2018-05-18T01:58:27.884Z,101495.25
2018-05-18T02:00:53.623Z,101493.59
2018-05-18T02:03:19.365Z,101495.47
2018-05-18T02:05:45.100Z,101492.02
2018-05-18T02:08:10.839Z,101498.28
2018-05-18T02:10:36.566Z,101487.51
2018-05-18T02:13:02.318Z,101491.17
2018-05-18T02:15:28.057Z,101494.17
2018-05-18T02:17:53.793Z,101496.93
2018-05-18T02:20:19.528Z,101494.82
2018-05-18T02:22:45.267Z,101501.45
2018-05-18T02:25:11.001Z,101501.09
2018-05-18T02:27:36.752Z,101498.86
2018-05-18T02:30:02.492Z,101502.76
2018-05-18T02:32:28.244Z,101502.81
2018-05-18T02:34:53.964Z,101505.42
2018-05-18T02:37:19.704Z,101501.52
2018-05-18T02:39:45.440Z,101507.25
2018-05-18T02:42:11.180Z,101505.97
2018-05-18T02:44:36.922Z,101513.05
2018-05-18T02:47:02.673Z,101514.94
2018-05-18T02:49:28.407Z,101512.77
2018-05-18T02:51:54.133Z,101514.48
2018-05-18T02:54:19.868Z,101519.42
2018-05-18T02:56:45.589Z,101520.64
2018-05-18T02:59:11.330Z,101518.45
2018-05-18T03:01:37.065Z,101520.79
2018-05-18T03:04:02.813Z,101522.42
2018-05-18T03:06:28.540Z,101529.53
2018-05-18T03:08:54.288Z,101526.87
2018-05-18T03:11:20.033Z,101523.32
2018-05-18T03:13:45.774Z,101523.78
2018-05-18T03:16:11.521Z,101527.30
2018-05-18T03:18:37.256Z,101525.57
2018-05-18T03:21:03.014Z,101533.82
2018-05-18T03:23:28.740Z,101534.42
2018-05-18T03:25:54.468Z,101534.82
2018-05-18T03:28:20.215Z,101530.81
2018-05-18T03:30:45.944Z,101529.91
2018-05-18T03:33:11.678Z,101527.64
2018-05-18T03:35:37.408Z,101529.90
2018-05-18T03:38:03.148Z,101536.45
2018-05-18T03:40:28.889Z,101538.66
2018-05-18T03:42:54.641Z,101542.89
2018-05-18T03:45:20.416Z,101544.02
2018-05-18T03:47:46.167Z,101544.38
2018-05-18T03:50:11.901Z,101546.84
2018-05-18T03:52:37.645Z,101550.56
2018-05-18T03:55:03.380Z,101544.75
2018-05-18T03:57:29.120Z,101550.48
2018-05-18T03:59:54.860Z,101548.52
2018-05-18T04:02:33.056Z,101546.61
2018-05-18T04:05:11.114Z,101550.61
2018-05-18T04:07:49.337Z,101552.58
2018-05-18T04:10:15.069Z,101546.38
2018-05-18T04:12:40.826Z,101549.16
2018-05-18T04:15:06.556Z,101543.32
2018-05-18T04:17:32.275Z,101545.55
2018-05-18T04:19:58.102Z,101539.10
2018-05-18T04:22:23.752Z,101549.54
2018-05-18T04:24:49.488Z,101548.78
2018-05-18T04:27:15.227Z,101537.34
2018-05-18T04:29:40.971Z,101542.88
2018-05-18T04:32:06.715Z,101540.80
2018-05-18T04:34:32.448Z,101541.22
2018-05-18T04:36:58.223Z,101539.94
2018-05-18T04:39:23.934Z,101542.75
2018-05-18T04:41:49.661Z,101538.30
2018-05-18T04:44:15.403Z,101540.84
2018-05-18T04:46:41.137Z,101540.75
2018-05-18T04:49:06.879Z,101542.63
2018-05-18T04:51:32.613Z,101549.16
2018-05-18T04:53:58.357Z,101552.41
2018-05-18T04:56:24.084Z,101551.50
2018-05-18T04:58:49.828Z,101544.19
2018-05-18T05:01:15.555Z,101550.48
2018-05-18T05:03:41.283Z,101549.86
2018-05-18T05:06:07.020Z,101549.36
2018-05-18T05:08:32.756Z,101550.12
2018-05-18T05:10:58.488Z,101549.27
2018-05-18T05:13:24.208Z,101553.88
2018-05-18T05:15:49.945Z,101555.14
2018-05-18T05:18:15.675Z,101563.00
2018-05-18T05:20:41.421Z,101558.23
2018-05-18T05:23:07.155Z,101563.01
2018-05-18T05:25:32.874Z,101573.73
2018-05-18T05:27:58.600Z,101574.03
2018-05-18T05:30:24.359Z,101578.61
2018-05-18T05:32:50.073Z,101582.18
2018-05-18T05:35:15.808Z,101582.23
2018-05-18T05:37:41.542Z,101579.25
2018-05-18T05:40:07.284Z,101580.35
2018-05-18T05:42:33.008Z,101584.11
2018-05-18T05:44:58.757Z,101584.88
2018-05-18T05:47:24.480Z,101585.02
2018-05-18T05:49:57.044Z,101589.02
2018-05-18T05:52:22.788Z,101599.63
2018-05-18T05:54:48.515Z,101601.27
2018-05-18T05:57:14.245Z,101602.03
2018-05-18T05:59:39.988Z,101605.73
2018-05-18T06:02:05.704Z,101601.23
2018-05-18T06:04:31.432Z,101606.24
2018-05-18T06:06:57.153Z,101604.30
2018-05-18T06:09:22.889Z,101606.22
2018-05-18T06:11:48.599Z,101602.83
2018-05-18T06:14:14.360Z,101602.25
2018-05-18T06:16:40.089Z,101599.87
2018-05-18T06:19:05.824Z,101602.22
2018-05-18T06:21:31.545Z,101602.68
2018-05-18T06:23:57.264Z,101600.56
2018-05-18T06:26:22.995Z,101609.24
2018-05-18T06:28:48.784Z,101612.38
2018-05-18T06:31:14.469Z,101616.95
2018-05-18T06:33:40.196Z,101622.36
2018-05-18T06:36:05.945Z,101618.23
2018-05-18T06:38:31.676Z,101625.31
2018-05-18T06:40:57.418Z,101625.91
2018-05-18T06:43:23.144Z,101627.12
2018-05-18T06:45:48.879Z,101628.72
2018-05-18T06:48:14.600Z,101626.91
2018-05-18T06:50:40.336Z,101622.98
2018-05-18T06:53:06.063Z,101623.02
2018-05-18T06:55:31.799Z,101621.76
2018-05-18T06:57:57.534Z,101623.54
2018-05-18T07:00:23.268Z,101620.16
2018-05-18T07:02:49.005Z,101628.30
2018-05-18T07:05:14.728Z,101622.94
2018-05-18T07:07:40.456Z,101622.33
2018-05-18T07:10:06.212Z,101618.89
2018-05-18T07:12:31.944Z,101618.93
2018-05-18T07:14:57.683Z,101625.47
2018-05-18T07:17:23.421Z,101628.59
2018-05-18T07:19:49.161Z,101626.84
2018-05-18T07:22:14.889Z,101620.63
2018-05-18T07:24:40.636Z,101634.00
2018-05-18T07:27:06.364Z,101633.41
2018-05-18T07:29:32.084Z,101640.27
2018-05-18T07:31:57.816Z,101637.47
2018-05-18T07:34:23.539Z,101636.16
2018-05-18T07:36:49.273Z,101630.19
2018-05-18T07:39:14.993Z,101628.64
2018-05-18T07:41:40.743Z,101637.14
2018-05-18T07:44:06.479Z,101640.14
2018-05-18T07:46:32.211Z,101641.84
2018-05-18T07:48:57.932Z,101642.57
2018-05-18T07:51:23.665Z,101645.47
2018-05-18T07:53:49.387Z,101655.03
2018-05-18T07:56:15.124Z,101651.58
2018-05-18T07:58:40.844Z,101647.67
2018-05-18T08:01:06.592Z,101648.17
2018-05-18T08:03:32.308Z,101641.94
2018-05-18T08:05:58.049Z,101649.20
2018-05-18T08:08:23.764Z,101648.61
2018-05-18T08:10:49.509Z,101651.47
2018-05-18T08:13:15.240Z,101654.94
2018-05-18T08:15:40.976Z,101659.45
2018-05-18T08:18:06.704Z,101651.42
2018-05-18T08:20:32.438Z,101666.31
2018-05-18T08:22:58.159Z,101661.91
2018-05-18T08:25:23.896Z,101664.70
2018-05-18T08:27:49.632Z,101662.92
2018-05-18T08:30:15.393Z,101670.41
2018-05-18T08:32:41.115Z,101673.38
2018-05-18T08:35:06.854Z,101677.89
2018-05-18T08:37:32.602Z,101680.08
2018-05-18T08:39:58.317Z,101680.84
2018-05-18T08:42:24.077Z,101680.30
2018-05-18T08:44:49.810Z,101681.59
2018-05-18T08:47:15.545Z,101685.41
2018-05-18T08:49:41.276Z,101683.55
2018-05-18T08:52:07.015Z,101687.63
2018-05-18T08:54:32.743Z,101686.97
2018-05-18T08:56:58.484Z,101680.67
2018-05-18T08:59:24.211Z,101685.16
2018-05-18T09:01:49.960Z,101689.80
2018-05-18T09:04:15.705Z,101692.06
2018-05-18T09:06:41.440Z,101690.30
2018-05-18T09:09:07.167Z,101688.94
2018-05-18T09:11:32.908Z,101695.31
2018-05-18T09:13:58.648Z,101696.74
2018-05-18T09:16:24.388Z,101700.19
2018-05-18T09:18:50.112Z,101704.84
2018-05-18T09:21:15.867Z,101701.20
2018-05-18T09:23:41.600Z,101703.54
2018-05-18T09:26:07.341Z,101702.13
2018-05-18T09:28:33.064Z,101711.03
2018-05-18T09:30:58.810Z,101708.09
2018-05-18T09:33:24.540Z,101712.59
2018-05-18T09:35:50.289Z,101709.47
2018-05-18T09:38:16.013Z,101709.86
2018-05-18T09:40:41.752Z,101719.73
2018-05-18T09:43:07.501Z,101714.58
2018-05-18T09:45:33.229Z,101713.50
2018-05-18T09:47:58.972Z,101715.66
2018-05-18T09:50:24.709Z,101717.06
2018-05-18T09:52:57.517Z,101708.67
2018-05-18T09:55:23.430Z,101707.56
2018-05-18T09:57:49.000Z,101708.44
2018-05-18T10:00:14.725Z,101718.81
2018-05-18T10:02:40.472Z,101713.42
2018-05-18T10:05:06.205Z,101718.34
2018-05-18T10:07:31.936Z,101716.22
2018-05-18T10:09:57.668Z,101723.87
2018-05-18T10:12:23.489Z,101721.86
2018-05-18T10:14:49.137Z,101721.77
2018-05-18T10:17:14.883Z,101725.61
2018-05-18T10:19:40.609Z,101726.16
2018-05-18T10:22:06.349Z,101727.38
2018-05-18T10:24:32.090Z,101726.72
2018-05-18T10:26:57.835Z,101731.69
2018-05-18T10:29:23.568Z,101734.91
2018-05-18T10:31:49.307Z,101738.45
2018-05-18T10:34:15.047Z,101736.98
2018-05-18T10:36:40.804Z,101741.22
2018-05-18T10:39:06.625Z,101748.87
2018-05-18T10:41:32.285Z,101742.45
2018-05-18T10:43:58.016Z,101749.08
2018-05-18T10:46:23.760Z,101748.66
2018-05-18T10:48:49.489Z,101746.23
2018-05-18T10:51:15.228Z,101739.31
2018-05-18T10:53:40.988Z,101741.38
2018-05-18T10:56:06.723Z,101739.56
2018-05-18T10:58:32.591Z,101738.70
2018-05-18T11:00:58.196Z,101751.95
2018-05-18T11:03:23.944Z,101752.20
2018-05-18T11:05:49.669Z,101754.16
2018-05-18T11:08:15.408Z,101757.26
2018-05-18T11:10:41.148Z,101757.02
2018-05-18T11:13:06.888Z,101753.80
2018-05-18T11:15:32.616Z,101757.47
2018-05-18T11:17:58.359Z,101765.21
2018-05-18T11:20:24.092Z,101760.72
2018-05-18T11:22:49.820Z,101765.32
2018-05-18T11:25:15.552Z,101760.09
2018-05-18T11:27:41.293Z,101769.36
2018-05-18T11:30:07.033Z,101770.98
2018-05-18T11:32:32.773Z,101763.98
2018-05-18T11:34:58.504Z,101770.98
2018-05-18T11:37:24.257Z,101767.73
2018-05-18T11:39:49.989Z,101761.32
2018-05-18T11:42:15.727Z,101757.98
2018-05-18T11:44:41.469Z,101762.45
2018-05-18T11:47:14.321Z,101760.22
2018-05-18T11:49:40.052Z,101770.27
2018-05-18T11:52:05.792Z,101766.30
2018-05-18T11:54:31.524Z,101770.98
2018-05-18T11:56:57.245Z,101773.02
2018-05-18T11:59:22.992Z,101774.41
2018-05-18T12:01:48.711Z,101777.25
2018-05-18T12:04:14.453Z,101776.09
2018-05-18T12:06:40.184Z,101777.77
2018-05-18T12:09:05.926Z,101779.99
2018-05-18T12:11:31.633Z,101773.27
2018-05-18T12:13:57.406Z,101777.58
2018-05-18T12:16:23.131Z,101783.60
2018-05-18T12:18:48.877Z,101787.07
2018-05-18T12:21:14.644Z,101786.45
2018-05-18T12:23:40.397Z,101782.56
2018-05-18T12:26:06.205Z,101778.47
2018-05-18T12:28:31.905Z,101781.08
2018-05-18T12:30:57.644Z,101775.87
2018-05-18T12:33:23.379Z,101776.22
2018-05-18T12:35:49.111Z,101772.03
2018-05-18T12:38:14.969Z,101774.89
2018-05-18T12:40:40.592Z,101776.72
2018-05-18T12:43:06.322Z,101779.39
2018-05-18T12:45:32.051Z,101780.09
2018-05-18T12:47:57.796Z,101780.94
2018-05-18T12:50:23.530Z,101776.24
2018-05-18T12:52:49.282Z,101779.23
2018-05-18T12:55:15.314Z,101785.22
2018-05-18T12:57:41.140Z,101788.09
2018-05-18T13:00:06.876Z,101785.90
2018-05-18T13:02:32.612Z,101785.57
2018-05-18T13:04:58.354Z,101785.22
2018-05-18T13:07:24.093Z,101782.60
2018-05-18T13:09:49.837Z,101789.97
2018-05-18T13:12:15.581Z,101781.12
2018-05-18T13:14:41.337Z,101781.11
2018-05-18T13:17:07.077Z,101784.70
2018-05-18T13:19:32.855Z,101792.68
2018-05-18T13:21:58.614Z,101781.83
2018-05-18T13:24:24.370Z,101784.80
2018-05-18T13:26:50.106Z,101784.38
2018-05-18T13:29:15.857Z,101782.21
2018-05-18T13:31:41.585Z,101783.00
2018-05-18T13:34:07.345Z,101782.55
2018-05-18T13:36:33.106Z,101784.06
2018-05-18T13:38:58.849Z,101785.48
2018-05-18T13:41:24.590Z,101791.39
2018-05-18T13:43:50.333Z,101790.89
2018-05-18T13:46:16.064Z,101784.70
2018-05-18T13:48:41.800Z,101789.36
2018-05-18T13:51:07.532Z,101784.23
2018-05-18T13:53:33.292Z,101780.27
2018-05-18T13:55:59.020Z,101786.32
2018-05-18T13:58:24.768Z,101783.63
2018-05-18T14:00:50.493Z,101788.33
2018-05-18T14:03:16.228Z,101790.33
2018-05-18T14:05:41.989Z,101793.08
2018-05-18T14:08:07.725Z,101784.95
2018-05-18T14:10:33.461Z,101791.80
2018-05-18T14:12:59.210Z,101784.06
2018-05-18T14:15:24.960Z,101789.33
2018-05-18T14:17:50.829Z,101786.19
2018-05-18T14:23:34.062Z,101790.69
2018-05-18T14:26:08.653Z,101785.75
2018-05-18T14:28:34.680Z,101785.80
2018-05-18T14:31:00.460Z,101786.29
2018-05-18T14:33:26.179Z,101790.33
2018-05-18T14:35:51.921Z,101798.23
2018-05-18T14:38:17.660Z,101786.27
2018-05-18T14:40:43.396Z,101787.25
2018-05-18T14:43:09.252Z,101791.30
2018-05-18T14:46:15.266Z,101793.30
2018-05-18T14:48:41.030Z,101788.59
2018-05-18T14:51:06.783Z,101792.02
2018-05-18T14:53:32.548Z,101792.37
2018-05-18T14:55:58.525Z,101790.28
2018-05-18T14:58:24.708Z,101790.00
2018-05-18T15:00:50.784Z,101789.91
2018-05-18T15:03:16.762Z,101793.70
2018-05-18T15:05:42.568Z,101792.90
2018-05-18T15:10:40.585Z,101797.97
2018-05-18T15:13:06.316Z,101803.73
2018-05-18T15:15:32.064Z,101800.13
2018-05-18T15:17:57.784Z,101793.02
2018-05-18T15:20:23.533Z,101801.36
2018-05-18T15:22:49.260Z,101798.05
2018-05-18T15:25:15.014Z,101797.30
2018-05-18T15:27:40.741Z,101799.94
2018-05-18T15:30:06.482Z,101798.19
2018-05-18T15:32:32.212Z,101800.03
2018-05-18T15:34:57.952Z,101794.83
2018-05-18T15:37:23.743Z,101796.56
2018-05-18T15:39:49.419Z,101793.66
2018-05-18T15:42:15.148Z,101796.25
2018-05-18T15:44:40.876Z,101803.88
2018-05-18T15:47:06.606Z,101804.67
2018-05-18T15:49:32.345Z,101803.94
2018-05-18T15:51:58.064Z,101798.05
2018-05-18T15:54:23.824Z,101802.17
2018-05-18T15:56:49.549Z,101811.64
2018-05-18T15:59:15.304Z,101807.06
2018-05-18T16:01:41.063Z,101808.85
2018-05-18T16:04:06.785Z,101804.16
2018-05-18T16:06:32.525Z,101802.10
2018-05-18T16:08:58.240Z,101804.35
2018-05-18T16:11:23.987Z,101805.53
2018-05-18T16:13:49.719Z,101808.28
2018-05-18T16:16:15.458Z,101804.62
2018-05-18T16:18:41.186Z,101809.44
2018-05-18T16:21:06.982Z,101812.06
2018-05-18T16:23:32.694Z,101802.22
2018-05-18T16:25:58.428Z,101805.96
2018-05-18T16:28:24.160Z,101802.05
2018-05-18T16:30:49.913Z,101808.83
2018-05-18T16:33:15.649Z,101810.39
2018-05-18T16:35:41.401Z,101807.94
2018-05-18T16:38:07.126Z,101802.24
2018-05-18T16:40:32.874Z,101805.55
2018-05-18T16:42:58.609Z,101805.20
2018-05-18T16:45:24.361Z,101812.09
2018-05-18T16:47:50.098Z,101806.06
2018-05-18T16:50:15.833Z,101808.79
2018-05-18T16:52:41.561Z,101810.97
2018-05-18T16:55:07.305Z,101814.95
2018-05-18T16:57:33.020Z,101816.93
2018-05-18T16:59:58.779Z,101817.13
2018-05-18T17:02:24.521Z,101818.39
2018-05-18T17:04:50.249Z,101827.09
2018-05-18T17:07:16.008Z,101825.45
2018-05-18T17:09:41.753Z,101816.63
2018-05-18T17:12:08.605Z,101813.66
2018-05-18T17:14:34.496Z,101817.65
2018-05-18T17:17:00.244Z,101819.24
2018-05-18T17:19:25.980Z,101812.64
2018-05-18T17:21:51.741Z,101809.23
2018-05-18T17:24:17.459Z,101814.22
2018-05-18T17:26:43.201Z,101815.93
2018-05-18T17:29:08.941Z,101816.96
2018-05-18T17:31:34.669Z,101814.14
2018-05-18T17:34:00.388Z,101823.49
2018-05-18T17:36:26.124Z,101825.02
2018-05-18T17:38:51.860Z,101822.86
2018-05-18T17:41:17.772Z,101824.28
2018-05-18T17:43:43.500Z,101836.58
2018-05-18T17:46:09.253Z,101831.88
2018-05-18T17:48:34.984Z,101837.11
2018-05-18T17:51:00.716Z,101829.66
2018-05-18T17:53:26.445Z,101833.36
2018-05-18T17:55:53.328Z,101829.09
2018-05-18T17:58:19.089Z,101834.45
2018-05-18T18:00:44.827Z,101838.95
2018-05-18T18:03:10.776Z,101837.81
2018-05-18T18:05:36.506Z,101840.69
2018-05-18T18:08:02.236Z,101839.14
2018-05-18T18:10:27.967Z,101837.66
2018-05-18T18:12:54.139Z,101842.44
2018-05-18T18:15:19.880Z,101846.64
2018-05-18T18:17:47.860Z,101852.61
2018-05-18T18:20:13.635Z,101851.22
2018-05-18T18:22:39.361Z,101856.67
2018-05-18T18:25:05.102Z,101851.27
2018-05-18T18:27:30.825Z,101852.09
2018-05-18T18:29:56.566Z,101850.77
2018-05-18T18:32:22.296Z,101860.39
2018-05-18T18:34:48.024Z,101865.67
2018-05-18T18:37:19.315Z,101859.33
2018-05-18T18:39:47.539Z,101861.80
2018-05-18T18:42:13.561Z,101859.72
2018-05-18T18:44:41.503Z,101856.15
2018-05-18T18:47:07.272Z,101859.48
2018-05-18T18:49:32.993Z,101861.88
2018-05-18T18:51:58.822Z,101863.23
2018-05-18T18:54:24.511Z,101864.04
2018-05-18T18:56:50.264Z,101865.56
2018-05-18T18:59:16.000Z,101864.59
2018-05-18T19:01:41.731Z,101864.14
2018-05-18T19:04:07.468Z,101868.62
2018-05-18T19:06:33.244Z,101878.73
2018-05-18T19:08:58.994Z,101878.14
2018-05-18T19:11:24.740Z,101879.75
2018-05-18T19:13:50.508Z,101879.23
2018-05-18T19:16:16.289Z,101886.49
2018-05-18T19:18:42.060Z,101891.23
2018-05-18T19:21:07.828Z,101892.60
2018-05-18T19:23:33.591Z,101895.13
2018-05-18T19:25:59.329Z,101896.53
2018-05-18T19:28:25.078Z,101896.27
2018-05-18T19:30:50.800Z,101898.97
2018-05-18T19:33:16.554Z,101902.41
2018-05-18T19:35:42.356Z,101899.95
2018-05-18T19:38:08.152Z,101901.49
2018-05-18T19:40:33.913Z,101902.70
2018-05-18T19:46:02.304Z,101903.06
2018-05-18T19:48:28.055Z,101904.61
2018-05-18T19:50:53.834Z,101905.08
2018-05-18T19:53:19.540Z,101902.89
2018-05-18T19:55:45.277Z,101900.53
2018-05-18T19:58:11.023Z,101907.44
2018-05-18T20:00:36.752Z,101906.22
2018-05-18T20:03:02.485Z,101912.11
2018-05-18T20:05:28.212Z,101905.38
2018-05-18T20:07:53.964Z,101903.98
2018-05-18T20:10:19.698Z,101903.27
2018-05-18T20:12:45.469Z,101912.05
2018-05-18T20:15:11.205Z,101908.64
2018-05-18T20:17:36.956Z,101908.47
2018-05-18T20:20:02.706Z,101913.43
2018-05-18T20:22:28.459Z,101911.96
2018-05-18T20:24:54.264Z,101916.99
2018-05-18T20:30:22.853Z,101916.36
2018-05-18T20:32:48.621Z,101913.52
2018-05-18T20:35:14.363Z,101908.62
2018-05-18T20:37:40.129Z,101911.69
2018-05-18T20:40:05.861Z,101908.24
2018-05-18T20:42:31.607Z,101908.88
2018-05-18T20:44:57.354Z,101911.84
2018-05-18T20:47:23.103Z,101915.70
2018-05-18T20:49:48.881Z,101912.92
2018-05-18T20:52:14.628Z,101913.06
2018-05-18T20:54:40.356Z,101917.59
2018-05-18T20:57:06.112Z,101910.92
2018-05-18T20:59:31.851Z,101920.20
2018-05-18T21:01:57.601Z,101911.64
2018-05-18T21:04:23.352Z,101911.64
2018-05-18T21:06:49.125Z,101914.70
2018-05-18T21:12:17.405Z,101915.02
2018-05-18T21:14:43.187Z,101903.41
2018-05-18T21:17:08.976Z,101911.12
2018-05-18T21:19:34.766Z,101907.61
2018-05-18T21:22:00.733Z,101916.81
2018-05-18T21:24:26.521Z,101914.70
2018-05-18T21:26:52.315Z,101921.23
2018-05-18T21:29:18.089Z,101914.54
2018-05-18T21:31:44.195Z,101913.78
2018-05-18T21:34:09.943Z,101916.20
2018-05-18T21:36:35.681Z,101919.16
2018-05-18T21:39:01.408Z,101915.16
2018-05-18T21:41:27.134Z,101915.63
2018-05-18T21:43:52.860Z,101914.03
2018-05-18T21:46:18.587Z,101916.05
2018-05-18T21:48:44.332Z,101912.05
2018-05-18T21:51:10.069Z,101913.00
2018-05-18T21:53:35.795Z,101911.98
2018-05-18T21:56:01.516Z,101914.64
2018-05-18T21:58:27.260Z,101920.21
2018-05-18T22:00:53.008Z,101919.06
2018-05-18T22:03:18.750Z,101916.76
2018-05-18T22:05:44.477Z,101922.12
2018-05-18T22:08:10.214Z,101922.83
2018-05-18T22:10:35.937Z,101926.53
2018-05-18T22:13:01.704Z,101925.17
2018-05-18T22:15:27.432Z,101909.67
2018-05-18T22:17:53.187Z,101922.09
2018-05-18T22:20:18.915Z,101930.34
2018-05-18T22:22:44.642Z,101928.72
2018-05-18T22:25:10.404Z,101931.87
2018-05-18T22:27:36.174Z,101934.53
2018-05-18T22:30:01.919Z,101934.05
2018-05-18T22:32:27.652Z,101932.48
2018-05-18T22:34:53.377Z,101933.44
2018-05-18T22:37:19.104Z,101926.56
2018-05-18T22:39:44.824Z,101933.00
2018-05-18T22:42:10.548Z,101933.73
2018-05-18T22:44:36.280Z,101927.19
2018-05-18T22:47:02.020Z,101921.84
2018-05-18T22:49:27.752Z,101921.63
2018-05-18T22:51:53.481Z,101920.61
2018-05-18T22:54:19.214Z,101915.00
2018-05-18T22:56:44.935Z,101913.84
2018-05-18T22:59:10.669Z,101911.85
2018-05-18T23:01:37.191Z,101913.69
2018-05-18T23:04:02.944Z,101907.60
2018-05-18T23:06:28.668Z,101913.38
2018-05-18T23:08:54.425Z,101905.36
2018-05-18T23:11:20.299Z,101916.00
2018-05-18T23:13:46.046Z,101908.48
2018-05-18T23:16:11.775Z,101916.11
2018-05-18T23:18:37.503Z,101920.95
2018-05-18T23:21:03.222Z,101922.25
2018-05-18T23:23:28.975Z,101922.52
2018-05-18T23:25:54.690Z,101923.41
2018-05-18T23:28:20.449Z,101924.88
2018-05-18T23:30:46.177Z,101922.61
2018-05-18T23:33:18.775Z,101928.05
2018-05-18T23:35:44.531Z,101922.41
2018-05-18T23:38:10.716Z,101924.07
2018-05-18T23:40:36.509Z,101924.05
2018-05-18T23:43:02.254Z,101921.28
2018-05-18T23:45:28.128Z,101928.02
2018-05-18T23:47:53.888Z,101925.88
2018-05-18T23:50:19.612Z,101928.64
2018-05-18T23:52:45.329Z,101920.48
2018-05-18T23:55:11.076Z,101911.28
2018-05-18T23:57:36.813Z,101919.42
